sensor_id;sensor_type;location;lat;lon;timestamp;P1;durP1;ratioP1;P2;durP2;ratioP2
20844;SDS011;10583;49.084;8.646;2023-06-01T00:01:55;2.77;;;2.77;;
20844;SDS011;10583;49.084;8.646;2023-06-01T00:04:23;2.53;;;2.53;;
20844;SDS011;10583;49.084;8.646;2023-06-01T00:06:50;2.43;;;2.43;;
20844;SDS011;10583;49.084;8.646;2023-06-01T00:09:18;2.40;;;2.40;;
20844;SDS011;10583;49.084;8.646;2023-06-01T00:11:45;2.33;;;2.33;;
20844;SDS011;10583;49.084;8.646;2023-06-01T00:14:11;2.77;;;2.77;;
20844;SDS011;10583;49.084;8.646;2023-06-01T00:16:38;2.23;;;2.23;;
20844;SDS011;10583;49.084;8.646;2023-06-01T00:19:05;2.20;;;2.20;;
20844;SDS011;10583;49.084;8.646;2023-06-01T00:21:32;2.60;;;2.60;;
20844;SDS011;10583;49.084;8.646;2023-06-01T00:24:00;2.53;;;2.53;;
20844;SDS011;10583;49.084;8.646;2023-06-01T00:26:28;2.60;;;2.60;;
20844;SDS011;10583;49.084;8.646;2023-06-01T00:28:57;2.37;;;2.37;;
20844;SDS011;10583;49.084;8.646;2023-06-01T00:31:23;2.63;;;2.63;;
20844;SDS011;10583;49.084;8.646;2023-06-01T00:33:50;1.87;;;1.87;;
20844;SDS011;10583;49.084;8.646;2023-06-01T00:36:17;2.33;;;2.33;;
20844;SDS011;10583;49.084;8.646;2023-06-01T00:38:44;2.80;;;2.80;;
20844;SDS011;10583;49.084;8.646;2023-06-01T00:41:11;2.37;;;2.37;;
20844;SDS011;10583;49.084;8.646;2023-06-01T00:43:39;2.30;;;2.30;;
20844;SDS011;10583;49.084;8.646;2023-06-01T00:46:06;2.20;;;2.20;;
20844;SDS011;10583;49.084;8.646;2023-06-01T00:48:33;2.40;;;2.40;;
20844;SDS011;10583;49.084;8.646;2023-06-01T00:51:01;2.63;;;2.63;;
20844;SDS011;10583;49.084;8.646;2023-06-01T00:53:27;2.30;;;2.30;;
20844;SDS011;10583;49.084;8.646;2023-06-01T00:55:55;2.57;;;2.57;;
20844;SDS011;10583;49.084;8.646;2023-06-01T00:58:21;2.40;;;2.40;;
20844;SDS011;10583;49.084;8.646;2023-06-01T01:00:50;2.40;;;2.40;;
20844;SDS011;10583;49.084;8.646;2023-06-01T01:03:20;3.00;;;3.00;;
20844;SDS011;10583;49.084;8.646;2023-06-01T01:05:50;2.50;;;2.50;;
20844;SDS011;10583;49.084;8.646;2023-06-01T01:08:24;2.37;;;2.37;;
20844;SDS011;10583;49.084;8.646;2023-06-01T01:11:03;2.50;;;2.50;;
20844;SDS011;10583;49.084;8.646;2023-06-01T01:13:34;2.40;;;2.40;;
20844;SDS011;10583;49.084;8.646;2023-06-01T01:16:10;2.77;;;2.77;;
20844;SDS011;10583;49.084;8.646;2023-06-01T01:18:45;2.77;;;2.77;;
20844;SDS011;10583;49.084;8.646;2023-06-01T01:21:19;2.73;;;2.73;;
20844;SDS011;10583;49.084;8.646;2023-06-01T01:26:52;2.50;;;2.50;;
20844;SDS011;10583;49.084;8.646;2023-06-01T01:29:30;2.60;;;2.60;;
20844;SDS011;10583;49.084;8.646;2023-06-01T01:31:58;2.40;;;2.40;;
20844;SDS011;10583;49.084;8.646;2023-06-01T01:34:26;2.40;;;2.40;;
20844;SDS011;10583;49.084;8.646;2023-06-01T01:36:54;2.50;;;2.50;;
20844;SDS011;10583;49.084;8.646;2023-06-01T01:39:21;2.40;;;2.40;;
20844;SDS011;10583;49.084;8.646;2023-06-01T01:41:48;2.67;;;2.67;;
20844;SDS011;10583;49.084;8.646;2023-06-01T01:44:15;2.43;;;2.43;;
20844;SDS011;10583;49.084;8.646;2023-06-01T01:46:47;2.43;;;2.43;;
20844;SDS011;10583;49.084;8.646;2023-06-01T01:49:20;2.30;;;2.30;;
20844;SDS011;10583;49.084;8.646;2023-06-01T01:51:53;2.53;;;2.53;;
20844;SDS011;10583;49.084;8.646;2023-06-01T01:54:27;2.53;;;2.53;;
20844;SDS011;10583;49.084;8.646;2023-06-01T01:56:57;2.80;;;2.80;;
20844;SDS011;10583;49.084;8.646;2023-06-01T01:59:25;2.90;;;2.90;;
20844;SDS011;10583;49.084;8.646;2023-06-01T02:01:54;3.33;;;3.33;;
20844;SDS011;10583;49.084;8.646;2023-06-01T02:04:21;3.30;;;3.30;;
20844;SDS011;10583;49.084;8.646;2023-06-01T02:06:48;2.93;;;2.93;;
20844;SDS011;10583;49.084;8.646;2023-06-01T02:09:15;2.67;;;2.67;;
20844;SDS011;10583;49.084;8.646;2023-06-01T02:11:42;2.63;;;2.63;;
20844;SDS011;10583;49.084;8.646;2023-06-01T02:14:09;2.90;;;2.90;;
20844;SDS011;10583;49.084;8.646;2023-06-01T02:16:36;2.63;;;2.63;;
20844;SDS011;10583;49.084;8.646;2023-06-01T02:19:04;2.60;;;2.60;;
20844;SDS011;10583;49.084;8.646;2023-06-01T02:21:31;2.90;;;2.90;;
20844;SDS011;10583;49.084;8.646;2023-06-01T02:23:58;2.70;;;2.70;;
20844;SDS011;10583;49.084;8.646;2023-06-01T02:26:29;2.53;;;2.53;;
20844;SDS011;10583;49.084;8.646;2023-06-01T02:28:56;3.20;;;3.20;;
20844;SDS011;10583;49.084;8.646;2023-06-01T02:31:23;2.70;;;2.70;;
20844;SDS011;10583;49.084;8.646;2023-06-01T02:33:50;2.77;;;2.77;;
20844;SDS011;10583;49.084;8.646;2023-06-01T02:36:18;2.60;;;2.60;;
20844;SDS011;10583;49.084;8.646;2023-06-01T02:38:46;2.63;;;2.63;;
20844;SDS011;10583;49.084;8.646;2023-06-01T02:41:13;2.87;;;2.87;;
20844;SDS011;10583;49.084;8.646;2023-06-01T02:43:40;2.43;;;2.43;;
20844;SDS011;10583;49.084;8.646;2023-06-01T02:46:07;2.70;;;2.70;;
20844;SDS011;10583;49.084;8.646;2023-06-01T02:48:33;2.40;;;2.40;;
20844;SDS011;10583;49.084;8.646;2023-06-01T02:51:00;2.83;;;2.83;;
20844;SDS011;10583;49.084;8.646;2023-06-01T02:53:28;3.00;;;3.00;;
20844;SDS011;10583;49.084;8.646;2023-06-01T02:55:56;2.40;;;2.40;;
20844;SDS011;10583;49.084;8.646;2023-06-01T02:58:23;2.70;;;2.70;;
20844;SDS011;10583;49.084;8.646;2023-06-01T03:00:50;2.60;;;2.60;;
20844;SDS011;10583;49.084;8.646;2023-06-01T03:03:17;2.63;;;2.63;;
20844;SDS011;10583;49.084;8.646;2023-06-01T03:05:43;2.60;;;2.60;;
20844;SDS011;10583;49.084;8.646;2023-06-01T03:08:13;3.00;;;3.00;;
20844;SDS011;10583;49.084;8.646;2023-06-01T03:10:43;2.40;;;2.40;;
20844;SDS011;10583;49.084;8.646;2023-06-01T03:13:10;2.60;;;2.60;;
20844;SDS011;10583;49.084;8.646;2023-06-01T03:15:36;2.50;;;2.50;;
20844;SDS011;10583;49.084;8.646;2023-06-01T03:18:03;2.43;;;2.43;;
20844;SDS011;10583;49.084;8.646;2023-06-01T03:20:32;3.00;;;3.00;;
20844;SDS011;10583;49.084;8.646;2023-06-01T03:22:59;2.87;;;2.87;;
20844;SDS011;10583;49.084;8.646;2023-06-01T03:25:26;3.20;;;3.20;;
20844;SDS011;10583;49.084;8.646;2023-06-01T03:27:54;2.93;;;2.93;;
20844;SDS011;10583;49.084;8.646;2023-06-01T03:30:21;2.93;;;2.93;;
20844;SDS011;10583;49.084;8.646;2023-06-01T03:32:48;3.33;;;3.33;;
20844;SDS011;10583;49.084;8.646;2023-06-01T03:35:15;2.50;;;2.50;;
20844;SDS011;10583;49.084;8.646;2023-06-01T03:37:43;3.07;;;3.07;;
20844;SDS011;10583;49.084;8.646;2023-06-01T03:40:10;2.90;;;2.90;;
20844;SDS011;10583;49.084;8.646;2023-06-01T03:42:37;3.03;;;3.03;;
20844;SDS011;10583;49.084;8.646;2023-06-01T03:45:06;3.13;;;3.13;;
20844;SDS011;10583;49.084;8.646;2023-06-01T03:47:34;2.53;;;2.53;;
20844;SDS011;10583;49.084;8.646;2023-06-01T03:50:02;2.80;;;2.80;;
20844;SDS011;10583;49.084;8.646;2023-06-01T03:52:31;2.73;;;2.73;;
20844;SDS011;10583;49.084;8.646;2023-06-01T03:54:59;2.70;;;2.70;;
20844;SDS011;10583;49.084;8.646;2023-06-01T03:57:26;3.10;;;3.10;;
20844;SDS011;10583;49.084;8.646;2023-06-01T03:59:53;2.93;;;2.93;;
20844;SDS011;10583;49.084;8.646;2023-06-01T04:02:22;2.67;;;2.67;;
20844;SDS011;10583;49.084;8.646;2023-06-01T04:04:49;2.70;;;2.70;;
20844;SDS011;10583;49.084;8.646;2023-06-01T04:07:16;2.90;;;2.90;;
20844;SDS011;10583;49.084;8.646;2023-06-01T04:09:46;2.70;;;2.70;;
20844;SDS011;10583;49.084;8.646;2023-06-01T04:12:13;2.60;;;2.60;;
20844;SDS011;10583;49.084;8.646;2023-06-01T04:14:41;3.33;;;3.33;;
20844;SDS011;10583;49.084;8.646;2023-06-01T04:17:08;2.57;;;2.57;;
20844;SDS011;10583;49.084;8.646;2023-06-01T04:19:37;2.97;;;2.97;;
20844;SDS011;10583;49.084;8.646;2023-06-01T04:22:05;2.80;;;2.80;;
20844;SDS011;10583;49.084;8.646;2023-06-01T04:24:31;2.80;;;2.80;;
20844;SDS011;10583;49.084;8.646;2023-06-01T04:26:58;3.33;;;3.33;;
20844;SDS011;10583;49.084;8.646;2023-06-01T04:29:25;3.07;;;3.07;;
20844;SDS011;10583;49.084;8.646;2023-06-01T04:31:52;2.90;;;2.90;;
20844;SDS011;10583;49.084;8.646;2023-06-01T04:34:20;3.23;;;3.23;;
20844;SDS011;10583;49.084;8.646;2023-06-01T04:36:49;2.90;;;2.90;;
20844;SDS011;10583;49.084;8.646;2023-06-01T04:39:16;3.43;;;3.43;;
20844;SDS011;10583;49.084;8.646;2023-06-01T04:41:43;3.10;;;3.10;;
20844;SDS011;10583;49.084;8.646;2023-06-01T04:44:10;2.90;;;2.90;;
20844;SDS011;10583;49.084;8.646;2023-06-01T04:46:38;2.93;;;2.93;;
20844;SDS011;10583;49.084;8.646;2023-06-01T04:49:06;3.57;;;3.57;;
20844;SDS011;10583;49.084;8.646;2023-06-01T04:51:32;3.60;;;3.60;;
20844;SDS011;10583;49.084;8.646;2023-06-01T04:54:03;3.17;;;3.17;;
20844;SDS011;10583;49.084;8.646;2023-06-01T04:56:30;3.10;;;3.10;;
20844;SDS011;10583;49.084;8.646;2023-06-01T04:58:57;3.47;;;3.47;;
20844;SDS011;10583;49.084;8.646;2023-06-01T05:01:24;3.20;;;3.20;;
20844;SDS011;10583;49.084;8.646;2023-06-01T05:03:54;3.20;;;3.20;;
20844;SDS011;10583;49.084;8.646;2023-06-01T05:06:22;3.37;;;3.37;;
20844;SDS011;10583;49.084;8.646;2023-06-01T05:08:49;3.20;;;3.20;;
20844;SDS011;10583;49.084;8.646;2023-06-01T05:11:18;3.30;;;3.30;;
20844;SDS011;10583;49.084;8.646;2023-06-01T05:13:46;3.67;;;3.67;;
20844;SDS011;10583;49.084;8.646;2023-06-01T05:16:13;3.23;;;3.23;;
20844;SDS011;10583;49.084;8.646;2023-06-01T05:18:40;3.40;;;3.40;;
20844;SDS011;10583;49.084;8.646;2023-06-01T05:21:07;3.50;;;3.50;;
20844;SDS011;10583;49.084;8.646;2023-06-01T05:23:34;3.50;;;3.50;;
20844;SDS011;10583;49.084;8.646;2023-06-01T05:26:01;3.17;;;3.17;;
20844;SDS011;10583;49.084;8.646;2023-06-01T05:28:30;3.23;;;3.23;;
20844;SDS011;10583;49.084;8.646;2023-06-01T05:30:57;3.37;;;3.37;;
20844;SDS011;10583;49.084;8.646;2023-06-01T05:33:24;3.27;;;3.27;;
20844;SDS011;10583;49.084;8.646;2023-06-01T05:35:51;3.40;;;3.40;;
20844;SDS011;10583;49.084;8.646;2023-06-01T05:38:18;3.30;;;3.30;;
20844;SDS011;10583;49.084;8.646;2023-06-01T05:40:45;3.40;;;3.40;;
20844;SDS011;10583;49.084;8.646;2023-06-01T05:43:13;2.63;;;2.63;;
20844;SDS011;10583;49.084;8.646;2023-06-01T05:45:41;3.13;;;3.13;;
20844;SDS011;10583;49.084;8.646;2023-06-01T05:48:08;3.30;;;3.30;;
20844;SDS011;10583;49.084;8.646;2023-06-01T05:50:38;3.20;;;3.20;;
20844;SDS011;10583;49.084;8.646;2023-06-01T05:53:05;3.30;;;3.30;;
20844;SDS011;10583;49.084;8.646;2023-06-01T05:55:32;4.03;;;4.03;;
20844;SDS011;10583;49.084;8.646;2023-06-01T05:57:58;4.10;;;4.10;;
20844;SDS011;10583;49.084;8.646;2023-06-01T06:00:25;4.27;;;4.27;;
20844;SDS011;10583;49.084;8.646;2023-06-01T06:02:53;4.17;;;4.17;;
20844;SDS011;10583;49.084;8.646;2023-06-01T06:05:20;3.50;;;3.50;;
20844;SDS011;10583;49.084;8.646;2023-06-01T06:07:47;3.83;;;3.83;;
20844;SDS011;10583;49.084;8.646;2023-06-01T06:10:14;4.87;;;4.87;;
20844;SDS011;10583;49.084;8.646;2023-06-01T06:12:41;4.37;;;4.37;;
20844;SDS011;10583;49.084;8.646;2023-06-01T06:15:08;3.60;;;3.60;;
20844;SDS011;10583;49.084;8.646;2023-06-01T06:17:36;3.00;;;3.00;;
20844;SDS011;10583;49.084;8.646;2023-06-01T06:20:04;2.67;;;2.67;;
20844;SDS011;10583;49.084;8.646;2023-06-01T06:22:32;2.77;;;2.77;;
20844;SDS011;10583;49.084;8.646;2023-06-01T06:24:59;2.72;;;2.72;;
20844;SDS011;10583;49.084;8.646;2023-06-01T06:27:26;2.63;;;2.63;;
20844;SDS011;10583;49.084;8.646;2023-06-01T06:29:53;2.50;;;2.50;;
20844;SDS011;10583;49.084;8.646;2023-06-01T06:32:20;2.47;;;2.47;;
20844;SDS011;10583;49.084;8.646;2023-06-01T06:34:47;2.60;;;2.60;;
20844;SDS011;10583;49.084;8.646;2023-06-01T06:37:15;2.42;;;2.42;;
20844;SDS011;10583;49.084;8.646;2023-06-01T06:39:43;2.30;;;2.30;;
20844;SDS011;10583;49.084;8.646;2023-06-01T06:42:10;2.45;;;2.45;;
20844;SDS011;10583;49.084;8.646;2023-06-01T06:44:37;2.30;;;2.30;;
20844;SDS011;10583;49.084;8.646;2023-06-01T06:47:04;2.17;;;2.17;;
20844;SDS011;10583;49.084;8.646;2023-06-01T06:49:31;2.15;;;2.15;;
20844;SDS011;10583;49.084;8.646;2023-06-01T06:51:58;2.45;;;2.45;;
20844;SDS011;10583;49.084;8.646;2023-06-01T06:54:26;2.38;;;2.38;;
20844;SDS011;10583;49.084;8.646;2023-06-01T06:56:53;2.45;;;2.45;;
20844;SDS011;10583;49.084;8.646;2023-06-01T06:59:20;2.40;;;2.40;;
20844;SDS011;10583;49.084;8.646;2023-06-01T07:01:47;2.88;;;2.88;;
20844;SDS011;10583;49.084;8.646;2023-06-01T07:04:13;2.60;;;2.60;;
20844;SDS011;10583;49.084;8.646;2023-06-01T07:06:40;2.20;;;2.20;;
20844;SDS011;10583;49.084;8.646;2023-06-01T07:09:07;2.50;;;2.50;;
20844;SDS011;10583;49.084;8.646;2023-06-01T07:11:36;2.20;;;2.20;;
20844;SDS011;10583;49.084;8.646;2023-06-01T07:14:03;2.75;;;2.75;;
20844;SDS011;10583;49.084;8.646;2023-06-01T07:16:30;3.00;;;3.00;;
20844;SDS011;10583;49.084;8.646;2023-06-01T07:18:57;2.72;;;2.72;;
20844;SDS011;10583;49.084;8.646;2023-06-01T07:21:24;2.83;;;2.83;;
20844;SDS011;10583;49.084;8.646;2023-06-01T07:23:51;2.72;;;2.72;;
20844;SDS011;10583;49.084;8.646;2023-06-01T07:26:18;2.30;;;2.30;;
20844;SDS011;10583;49.084;8.646;2023-06-01T07:28:46;2.50;;;2.50;;
20844;SDS011;10583;49.084;8.646;2023-06-01T07:31:18;2.35;;;2.35;;
20844;SDS011;10583;49.084;8.646;2023-06-01T07:33:46;2.45;;;2.45;;
20844;SDS011;10583;49.084;8.646;2023-06-01T07:36:13;2.60;;;2.60;;
20844;SDS011;10583;49.084;8.646;2023-06-01T07:38:40;2.85;;;2.85;;
20844;SDS011;10583;49.084;8.646;2023-06-01T07:41:08;2.72;;;2.72;;
20844;SDS011;10583;49.084;8.646;2023-06-01T07:43:35;2.45;;;2.45;;
20844;SDS011;10583;49.084;8.646;2023-06-01T07:46:04;2.40;;;2.40;;
20844;SDS011;10583;49.084;8.646;2023-06-01T07:48:31;2.42;;;2.42;;
20844;SDS011;10583;49.084;8.646;2023-06-01T07:51:02;2.42;;;2.42;;
20844;SDS011;10583;49.084;8.646;2023-06-01T07:53:28;2.45;;;2.45;;
20844;SDS011;10583;49.084;8.646;2023-06-01T07:55:56;2.50;;;2.50;;
20844;SDS011;10583;49.084;8.646;2023-06-01T07:58:23;2.65;;;2.65;;
20844;SDS011;10583;49.084;8.646;2023-06-01T08:00:50;2.58;;;2.58;;
20844;SDS011;10583;49.084;8.646;2023-06-01T08:03:18;2.47;;;2.47;;
20844;SDS011;10583;49.084;8.646;2023-06-01T08:05:45;2.72;;;2.72;;
20844;SDS011;10583;49.084;8.646;2023-06-01T08:08:12;2.30;;;2.30;;
20844;SDS011;10583;49.084;8.646;2023-06-01T08:10:40;2.80;;;2.80;;
20844;SDS011;10583;49.084;8.646;2023-06-01T08:13:06;2.80;;;2.80;;
20844;SDS011;10583;49.084;8.646;2023-06-01T08:15:33;3.05;;;3.05;;
20844;SDS011;10583;49.084;8.646;2023-06-01T08:18:02;2.88;;;2.88;;
20844;SDS011;10583;49.084;8.646;2023-06-01T08:20:30;2.88;;;2.88;;
20844;SDS011;10583;49.084;8.646;2023-06-01T08:22:58;2.47;;;2.47;;
20844;SDS011;10583;49.084;8.646;2023-06-01T08:25:25;2.65;;;2.65;;
20844;SDS011;10583;49.084;8.646;2023-06-01T08:27:52;2.58;;;2.58;;
20844;SDS011;10583;49.084;8.646;2023-06-01T08:30:20;2.67;;;2.67;;
20844;SDS011;10583;49.084;8.646;2023-06-01T08:32:46;2.65;;;2.65;;
20844;SDS011;10583;49.084;8.646;2023-06-01T08:35:14;2.30;;;2.30;;
20844;SDS011;10583;49.084;8.646;2023-06-01T08:37:42;2.78;;;2.78;;
20844;SDS011;10583;49.084;8.646;2023-06-01T08:40:09;2.60;;;2.60;;
20844;SDS011;10583;49.084;8.646;2023-06-01T08:42:39;2.55;;;2.55;;
20844;SDS011;10583;49.084;8.646;2023-06-01T08:45:10;2.55;;;2.55;;
20844;SDS011;10583;49.084;8.646;2023-06-01T08:47:38;2.58;;;2.58;;
20844;SDS011;10583;49.084;8.646;2023-06-01T08:50:07;2.67;;;2.67;;
20844;SDS011;10583;49.084;8.646;2023-06-01T08:52:35;2.72;;;2.72;;
20844;SDS011;10583;49.084;8.646;2023-06-01T08:55:06;2.60;;;2.60;;
20844;SDS011;10583;49.084;8.646;2023-06-01T08:57:33;2.75;;;2.75;;
20844;SDS011;10583;49.084;8.646;2023-06-01T09:00:00;2.67;;;2.67;;
20844;SDS011;10583;49.084;8.646;2023-06-01T09:02:27;2.80;;;2.80;;
20844;SDS011;10583;49.084;8.646;2023-06-01T09:04:54;3.03;;;3.03;;
20844;SDS011;10583;49.084;8.646;2023-06-01T09:07:22;2.80;;;2.80;;
20844;SDS011;10583;49.084;8.646;2023-06-01T09:09:49;2.97;;;2.97;;
20844;SDS011;10583;49.084;8.646;2023-06-01T09:12:21;3.03;;;3.03;;
20844;SDS011;10583;49.084;8.646;2023-06-01T09:14:50;2.70;;;2.70;;
20844;SDS011;10583;49.084;8.646;2023-06-01T09:17:32;2.72;;;2.72;;
20844;SDS011;10583;49.084;8.646;2023-06-01T09:19:59;2.80;;;2.80;;
20844;SDS011;10583;49.084;8.646;2023-06-01T09:22:27;2.80;;;2.80;;
20844;SDS011;10583;49.084;8.646;2023-06-01T09:25:05;3.00;;;3.00;;
20844;SDS011;10583;49.084;8.646;2023-06-01T09:27:41;3.28;;;3.28;;
20844;SDS011;10583;49.084;8.646;2023-06-01T09:30:10;3.10;;;3.10;;
20844;SDS011;10583;49.084;8.646;2023-06-01T09:32:37;2.80;;;2.80;;
20844;SDS011;10583;49.084;8.646;2023-06-01T09:35:04;2.92;;;2.92;;
20844;SDS011;10583;49.084;8.646;2023-06-01T09:37:33;2.80;;;2.80;;
20844;SDS011;10583;49.084;8.646;2023-06-01T09:39:59;2.97;;;2.97;;
20844;SDS011;10583;49.084;8.646;2023-06-01T09:42:33;2.97;;;2.97;;
20844;SDS011;10583;49.084;8.646;2023-06-01T09:45:17;3.30;;;3.30;;
20844;SDS011;10583;49.084;8.646;2023-06-01T09:47:45;3.00;;;3.00;;
20844;SDS011;10583;49.084;8.646;2023-06-01T09:50:15;3.40;;;3.40;;
20844;SDS011;10583;49.084;8.646;2023-06-01T09:52:58;3.35;;;3.35;;
20844;SDS011;10583;49.084;8.646;2023-06-01T09:55:25;3.03;;;3.03;;
20844;SDS011;10583;49.084;8.646;2023-06-01T09:57:52;2.97;;;2.97;;
20844;SDS011;10583;49.084;8.646;2023-06-01T10:00:40;3.25;;;3.25;;
20844;SDS011;10583;49.084;8.646;2023-06-01T10:03:07;3.33;;;3.33;;
20844;SDS011;10583;49.084;8.646;2023-06-01T10:05:34;3.10;;;3.10;;
20844;SDS011;10583;49.084;8.646;2023-06-01T10:08:01;2.88;;;2.88;;
20844;SDS011;10583;49.084;8.646;2023-06-01T10:10:29;3.00;;;3.00;;
20844;SDS011;10583;49.084;8.646;2023-06-01T10:12:57;3.78;;;3.78;;
20844;SDS011;10583;49.084;8.646;2023-06-01T10:15:24;3.10;;;3.10;;
20844;SDS011;10583;49.084;8.646;2023-06-01T10:17:53;3.35;;;3.35;;
20844;SDS011;10583;49.084;8.646;2023-06-01T10:20:20;3.28;;;3.28;;
20844;SDS011;10583;49.084;8.646;2023-06-01T10:22:48;3.17;;;3.17;;
20844;SDS011;10583;49.084;8.646;2023-06-01T10:25:15;3.80;;;3.80;;
20844;SDS011;10583;49.084;8.646;2023-06-01T10:27:51;3.50;;;3.50;;
20844;SDS011;10583;49.084;8.646;2023-06-01T10:30:21;3.20;;;3.20;;
20844;SDS011;10583;49.084;8.646;2023-06-01T10:32:48;2.95;;;2.95;;
20844;SDS011;10583;49.084;8.646;2023-06-01T10:38:31;2.90;;;2.90;;
20844;SDS011;10583;49.084;8.646;2023-06-01T10:43:55;3.03;;;3.03;;
20844;SDS011;10583;49.084;8.646;2023-06-01T10:46:35;3.05;;;3.05;;
20844;SDS011;10583;49.084;8.646;2023-06-01T10:49:03;2.97;;;2.97;;
20844;SDS011;10583;49.084;8.646;2023-06-01T10:51:30;2.83;;;2.83;;
20844;SDS011;10583;49.084;8.646;2023-06-01T11:02:41;3.08;;;3.08;;
20844;SDS011;10583;49.084;8.646;2023-06-01T11:08:05;3.45;;;3.45;;
20844;SDS011;10583;49.084;8.646;2023-06-01T11:13:28;3.08;;;3.08;;
20844;SDS011;10583;49.084;8.646;2023-06-01T11:18:58;2.90;;;2.90;;
20844;SDS011;10583;49.084;8.646;2023-06-01T11:21:29;3.00;;;3.00;;
20844;SDS011;10583;49.084;8.646;2023-06-01T11:23:58;2.80;;;2.80;;
20844;SDS011;10583;49.084;8.646;2023-06-01T11:26:32;3.08;;;3.08;;
20844;SDS011;10583;49.084;8.646;2023-06-01T11:29:05;2.72;;;2.72;;
20844;SDS011;10583;49.084;8.646;2023-06-01T11:31:34;2.70;;;2.70;;
20844;SDS011;10583;49.084;8.646;2023-06-01T11:34:02;2.65;;;2.65;;
20844;SDS011;10583;49.084;8.646;2023-06-01T11:36:30;2.70;;;2.70;;
20844;SDS011;10583;49.084;8.646;2023-06-01T11:39:02;2.80;;;2.80;;
20844;SDS011;10583;49.084;8.646;2023-06-01T11:41:30;3.05;;;3.05;;
20844;SDS011;10583;49.084;8.646;2023-06-01T11:43:57;2.90;;;2.90;;
20844;SDS011;10583;49.084;8.646;2023-06-01T11:46:24;2.88;;;2.88;;
20844;SDS011;10583;49.084;8.646;2023-06-01T11:48:58;3.08;;;3.08;;
20844;SDS011;10583;49.084;8.646;2023-06-01T11:51:27;2.55;;;2.55;;
20844;SDS011;10583;49.084;8.646;2023-06-01T11:53:54;2.85;;;2.85;;
20844;SDS011;10583;49.084;8.646;2023-06-01T11:56:27;3.17;;;3.17;;
20844;SDS011;10583;49.084;8.646;2023-06-01T11:58:57;3.00;;;3.00;;
20844;SDS011;10583;49.084;8.646;2023-06-01T12:01:25;2.63;;;2.63;;
20844;SDS011;10583;49.084;8.646;2023-06-01T12:03:51;2.70;;;2.70;;
20844;SDS011;10583;49.084;8.646;2023-06-01T12:06:19;2.63;;;2.63;;
20844;SDS011;10583;49.084;8.646;2023-06-01T12:08:46;2.65;;;2.65;;
20844;SDS011;10583;49.084;8.646;2023-06-01T12:11:16;3.15;;;3.15;;
20844;SDS011;10583;49.084;8.646;2023-06-01T12:13:44;2.45;;;2.45;;
20844;SDS011;10583;49.084;8.646;2023-06-01T12:16:14;2.83;;;2.83;;
20844;SDS011;10583;49.084;8.646;2023-06-01T12:18:41;2.70;;;2.70;;
20844;SDS011;10583;49.084;8.646;2023-06-01T12:21:08;2.63;;;2.63;;
20844;SDS011;10583;49.084;8.646;2023-06-01T12:23:36;2.60;;;2.60;;
20844;SDS011;10583;49.084;8.646;2023-06-01T12:26:04;2.58;;;2.58;;
20844;SDS011;10583;49.084;8.646;2023-06-01T12:28:46;2.80;;;2.80;;
20844;SDS011;10583;49.084;8.646;2023-06-01T12:31:15;2.72;;;2.72;;
20844;SDS011;10583;49.084;8.646;2023-06-01T12:33:43;2.72;;;2.72;;
20844;SDS011;10583;49.084;8.646;2023-06-01T12:36:12;2.42;;;2.42;;
20844;SDS011;10583;49.084;8.646;2023-06-01T12:38:56;2.60;;;2.60;;
20844;SDS011;10583;49.084;8.646;2023-06-01T12:41:24;2.55;;;2.55;;
20844;SDS011;10583;49.084;8.646;2023-06-01T12:43:52;2.40;;;2.40;;
20844;SDS011;10583;49.084;8.646;2023-06-01T12:46:21;2.58;;;2.58;;
20844;SDS011;10583;49.084;8.646;2023-06-01T12:48:49;2.75;;;2.75;;
20844;SDS011;10583;49.084;8.646;2023-06-01T12:51:18;2.30;;;2.30;;
20844;SDS011;10583;49.084;8.646;2023-06-01T12:53:45;2.38;;;2.38;;
20844;SDS011;10583;49.084;8.646;2023-06-01T12:56:12;2.53;;;2.53;;
20844;SDS011;10583;49.084;8.646;2023-06-01T12:58:39;2.47;;;2.47;;
20844;SDS011;10583;49.084;8.646;2023-06-01T13:01:06;2.38;;;2.38;;
20844;SDS011;10583;49.084;8.646;2023-06-01T13:03:34;2.42;;;2.42;;
20844;SDS011;10583;49.084;8.646;2023-06-01T13:06:02;2.60;;;2.60;;
20844;SDS011;10583;49.084;8.646;2023-06-01T13:08:28;2.58;;;2.58;;
20844;SDS011;10583;49.084;8.646;2023-06-01T13:10:55;2.58;;;2.58;;
20844;SDS011;10583;49.084;8.646;2023-06-01T13:13:22;2.45;;;2.45;;
20844;SDS011;10583;49.084;8.646;2023-06-01T13:15:49;2.55;;;2.55;;
20844;SDS011;10583;49.084;8.646;2023-06-01T13:18:16;2.65;;;2.65;;
20844;SDS011;10583;49.084;8.646;2023-06-01T13:20:44;2.13;;;2.13;;
20844;SDS011;10583;49.084;8.646;2023-06-01T13:23:11;2.50;;;2.50;;
20844;SDS011;10583;49.084;8.646;2023-06-01T13:25:38;2.10;;;2.10;;
20844;SDS011;10583;49.084;8.646;2023-06-01T13:28:06;2.58;;;2.58;;
20844;SDS011;10583;49.084;8.646;2023-06-01T13:30:33;2.45;;;2.45;;
20844;SDS011;10583;49.084;8.646;2023-06-01T13:33:00;2.50;;;2.50;;
20844;SDS011;10583;49.084;8.646;2023-06-01T13:35:27;2.33;;;2.33;;
20844;SDS011;10583;49.084;8.646;2023-06-01T13:37:56;2.40;;;2.40;;
20844;SDS011;10583;49.084;8.646;2023-06-01T13:40:23;2.80;;;2.80;;
20844;SDS011;10583;49.084;8.646;2023-06-01T13:42:50;2.15;;;2.15;;
20844;SDS011;10583;49.084;8.646;2023-06-01T13:45:18;2.50;;;2.50;;
20844;SDS011;10583;49.084;8.646;2023-06-01T13:47:45;2.33;;;2.33;;
20844;SDS011;10583;49.084;8.646;2023-06-01T13:50:12;2.67;;;2.67;;
20844;SDS011;10583;49.084;8.646;2023-06-01T13:52:39;2.30;;;2.30;;
20844;SDS011;10583;49.084;8.646;2023-06-01T13:55:08;2.58;;;2.58;;
20844;SDS011;10583;49.084;8.646;2023-06-01T13:57:36;2.30;;;2.30;;
20844;SDS011;10583;49.084;8.646;2023-06-01T14:00:04;2.70;;;2.70;;
20844;SDS011;10583;49.084;8.646;2023-06-01T14:02:33;2.35;;;2.35;;
20844;SDS011;10583;49.084;8.646;2023-06-01T14:05:00;2.53;;;2.53;;
20844;SDS011;10583;49.084;8.646;2023-06-01T14:07:27;2.45;;;2.45;;
20844;SDS011;10583;49.084;8.646;2023-06-01T14:09:54;2.63;;;2.63;;
20844;SDS011;10583;49.084;8.646;2023-06-01T14:12:22;2.78;;;2.78;;
20844;SDS011;10583;49.084;8.646;2023-06-01T14:14:48;2.55;;;2.55;;
20844;SDS011;10583;49.084;8.646;2023-06-01T14:17:15;2.70;;;2.70;;
20844;SDS011;10583;49.084;8.646;2023-06-01T14:19:42;2.80;;;2.80;;
20844;SDS011;10583;49.084;8.646;2023-06-01T14:22:10;2.90;;;2.90;;
20844;SDS011;10583;49.084;8.646;2023-06-01T14:24:37;2.70;;;2.70;;
20844;SDS011;10583;49.084;8.646;2023-06-01T14:27:03;2.92;;;2.92;;
20844;SDS011;10583;49.084;8.646;2023-06-01T14:29:32;2.88;;;2.88;;
20844;SDS011;10583;49.084;8.646;2023-06-01T14:31:59;2.78;;;2.78;;
20844;SDS011;10583;49.084;8.646;2023-06-01T14:34:26;2.55;;;2.55;;
20844;SDS011;10583;49.084;8.646;2023-06-01T14:36:53;2.50;;;2.50;;
20844;SDS011;10583;49.084;8.646;2023-06-01T14:39:19;2.50;;;2.50;;
20844;SDS011;10583;49.084;8.646;2023-06-01T14:41:46;2.45;;;2.45;;
20844;SDS011;10583;49.084;8.646;2023-06-01T14:44:13;2.97;;;2.97;;
20844;SDS011;10583;49.084;8.646;2023-06-01T14:46:41;2.45;;;2.45;;
20844;SDS011;10583;49.084;8.646;2023-06-01T14:49:08;2.70;;;2.70;;
20844;SDS011;10583;49.084;8.646;2023-06-01T14:51:35;2.45;;;2.45;;
20844;SDS011;10583;49.084;8.646;2023-06-01T14:54:01;2.85;;;2.85;;
20844;SDS011;10583;49.084;8.646;2023-06-01T14:56:28;2.90;;;2.90;;
20844;SDS011;10583;49.084;8.646;2023-06-01T14:58:56;2.80;;;2.80;;
20844;SDS011;10583;49.084;8.646;2023-06-01T15:01:22;2.38;;;2.38;;
20844;SDS011;10583;49.084;8.646;2023-06-01T15:03:51;2.38;;;2.38;;
20844;SDS011;10583;49.084;8.646;2023-06-01T15:06:18;2.65;;;2.65;;
20844;SDS011;10583;49.084;8.646;2023-06-01T15:08:45;2.22;;;2.22;;
20844;SDS011;10583;49.084;8.646;2023-06-01T15:11:12;2.40;;;2.40;;
20844;SDS011;10583;49.084;8.646;2023-06-01T15:13:39;2.72;;;2.72;;
20844;SDS011;10583;49.084;8.646;2023-06-01T15:16:07;2.42;;;2.42;;
20844;SDS011;10583;49.084;8.646;2023-06-01T15:18:33;2.45;;;2.45;;
20844;SDS011;10583;49.084;8.646;2023-06-01T15:21:01;2.53;;;2.53;;